Time;durP1;ratioP1;P1;durP2;ratioP2;P2;SDS_P1;SDS_P2;PMS_P1;PMS_P2;Temp;Humidity;BMP_temperature;BMP_pressure;BME280_temperature;BME280_humidity;BME280_pressure;Samples;Min_cycle;Max_cycle;Signal;HPM_P1;HPM_P2
2022/11/11 00:01:17;;;;;;;6.43;1.90;;;9.70;99.90;;;;;;5020362;28;20564;-89
2022/11/11 00:03:43;;;;;;;11.48;2.10;;;9.70;99.90;;;;;;5018818;28;20312;-88
2022/11/11 00:06:12;;;;;;;8.07;1.85;;;9.70;99.90;;;;;;5023798;28;20791;-90
2022/11/11 00:08:37;;;;;;;11.98;2.05;;;9.70;99.90;;;;;;5012259;28;20199;-89
2022/11/11 00:11:06;;;;;;;3.90;1.77;;;9.60;99.90;;;;;;5011529;28;20686;-88
2022/11/11 00:13:33;;;;;;;6.97;1.98;;;9.60;99.90;;;;;;5011348;28;20164;-88
2022/11/11 00:16:11;;;;;;;9.20;1.95;;;9.60;99.90;;;;;;5011300;28;20586;-89
2022/11/11 00:27:17;;;;;;;5.57;1.85;;;9.60;99.90;;;;;;5012644;28;20693;-88
2022/11/11 00:29:47;;;;;;;5.07;1.92;;;9.60;99.90;;;;;;5011359;28;20171;-88
2022/11/11 00:32:22;;;;;;;5.70;1.88;;;9.60;99.90;;;;;;5011301;28;20171;-88
2022/11/11 00:37:38;;;;;;;3.47;1.58;;;9.60;99.90;;;;;;5012476;28;20589;-89
2022/11/11 00:40:04;;;;;;;5.72;1.70;;;9.60;99.90;;;;;;5011876;28;20174;-89
2022/11/11 00:42:30;;;;;;;9.23;1.85;;;9.60;99.90;;;;;;5011035;28;20183;-88
2022/11/11 00:44:56;;;;;;;6.68;2.05;;;9.60;99.90;;;;;;5012307;28;20243;-89
2022/11/11 00:52:55;;;;;;;3.30;1.35;;;9.50;99.90;;;;;;5034531;28;20189;-89
2022/11/11 00:55:23;;;;;;;8.23;1.58;;;9.50;99.90;;;;;;5034871;28;20175;-90
2022/11/11 00:57:49;;;;;;;5.22;1.83;;;9.50;99.90;;;;;;5035712;28;20198;-89
2022/11/11 01:00:15;;;;;;;5.38;1.75;;;9.50;99.90;;;;;;5034677;28;20257;-89
2022/11/11 01:02:41;;;;;;;4.38;2.00;;;9.50;99.90;;;;;;5034439;28;20635;-88
2022/11/11 01:05:07;;;;;;;4.60;1.63;;;9.40;99.90;;;;;;5034380;28;20245;-88
2022/11/11 01:07:32;;;;;;;5.00;1.63;;;9.40;99.90;;;;;;5034113;28;20247;-88
2022/11/11 01:09:58;;;;;;;9.00;2.10;;;9.40;99.90;;;;;;5034227;28;20166;-89
2022/11/11 01:12:24;;;;;;;4.70;1.50;;;9.40;99.90;;;;;;5034365;28;20618;-89
2022/11/11 01:14:50;;;;;;;7.22;1.73;;;9.40;99.90;;;;;;5034377;28;20618;-88
2022/11/11 01:17:16;;;;;;;4.10;1.90;;;9.30;99.90;;;;;;5019648;28;20753;-88
2022/11/11 01:19:41;;;;;;;3.47;1.70;;;9.30;99.90;;;;;;5014657;28;20310;-89
2022/11/11 01:22:07;;;;;;;4.32;1.58;;;9.30;99.90;;;;;;5026032;28;20190;-88
2022/11/11 01:24:33;;;;;;;5.20;1.60;;;9.30;99.90;;;;;;5034196;28;20535;-89
2022/11/11 01:26:59;;;;;;;7.35;1.60;;;9.30;99.90;;;;;;5034313;28;20214;-88
2022/11/11 01:31:55;;;;;;;5.60;1.85;;;9.30;99.90;;;;;;4975061;28;20224;-88
2022/11/11 01:34:21;;;;;;;7.93;1.90;;;9.20;99.90;;;;;;4976388;28;20185;-88
2022/11/11 01:36:47;;;;;;;5.82;1.60;;;9.20;99.90;;;;;;4991396;28;20731;-89
2022/11/11 01:39:13;;;;;;;6.70;1.90;;;9.20;99.90;;;;;;4975499;28;20243;-89
2022/11/11 01:41:38;;;;;;;6.47;1.50;;;9.20;99.90;;;;;;4975327;28;20188;-88
2022/11/11 01:44:10;;;;;;;6.47;1.95;;;9.20;99.90;;;;;;4975092;28;20180;-89
2022/11/11 01:46:57;;;;;;;7.95;1.80;;;9.20;99.90;;;;;;4974502;28;20224;-89
2022/11/11 01:49:39;;;;;;;3.85;1.75;;;9.10;99.90;;;;;;4975052;28;20255;-88
2022/11/11 01:52:05;;;;;;;5.25;1.70;;;9.20;99.90;;;;;;4976097;28;20161;-88
2022/11/11 01:54:36;;;;;;;6.03;1.77;;;9.10;99.90;;;;;;4974886;28;20235;-88
2022/11/11 01:57:37;;;;;;;5.05;1.85;;;9.10;99.90;;;;;;4974873;28;20599;-88
2022/11/11 02:00:09;;;;;;;5.15;2.03;;;9.10;99.90;;;;;;4974658;28;20648;-89
2022/11/11 02:02:40;;;;;;;6.13;2.07;;;9.00;99.90;;;;;;4975167;28;20180;-88
2022/11/11 02:05:54;;;;;;;4.82;1.77;;;9.00;99.90;;;;;;4976087;28;20188;-89
2022/11/11 02:08:02;;;;;;;3.95;1.52;;;9.00;99.90;;;;;;4969856;28;20676;-88
2022/11/11 02:10:31;;;;;;;5.40;1.60;;;8.90;99.90;;;;;;4974631;28;20187;-88
2022/11/11 02:15:42;;;;;;;5.05;1.80;;;8.80;99.90;;;;;;4975890;28;20231;-88
2022/11/11 02:18:07;;;;;;;4.18;1.67;;;8.70;99.90;;;;;;4974671;28;20223;-89
2022/11/11 02:20:42;;;;;;;4.25;1.83;;;8.70;99.90;;;;;;4974245;28;20188;-89
2022/11/11 02:23:14;;;;;;;7.43;1.80;;;8.70;99.90;;;;;;4974503;28;20261;-89
2022/11/11 02:25:44;;;;;;;5.30;1.83;;;8.70;99.90;;;;;;4974544;28;20205;-90
2022/11/11 02:28:12;;;;;;;2.85;1.63;;;8.60;99.90;;;;;;4975438;28;20201;-89
2022/11/11 02:30:38;;;;;;;5.20;1.80;;;8.70;99.90;;;;;;4974183;28;20703;-88
2022/11/11 02:33:04;;;;;;;7.07;1.90;;;8.70;99.90;;;;;;4974251;28;20246;-89
2022/11/11 02:35:36;;;;;;;3.43;1.53;;;8.60;99.90;;;;;;4975327;28;20196;-88
2022/11/11 02:38:07;;;;;;;4.53;1.70;;;8.60;99.90;;;;;;4973917;28;20291;-89
2022/11/11 02:43:30;;;;;;;5.07;1.67;;;8.60;99.90;;;;;;4975369;28;20203;-88
2022/11/11 02:45:57;;;;;;;6.37;2.00;;;8.60;99.90;;;;;;4974111;28;20323;-89
2022/11/11 02:48:24;;;;;;;6.10;1.98;;;8.60;99.90;;;;;;4973708;28;20219;-89
2022/11/11 02:50:50;;;;;;;3.37;1.80;;;8.60;99.90;;;;;;4973907;28;20176;-88
2022/11/11 02:53:16;;;;;;;7.95;1.98;;;8.60;99.90;;;;;;4973768;28;20180;-88
2022/11/11 02:55:42;;;;;;;2.93;1.50;;;8.60;99.90;;;;;;4974047;28;20180;-87
2022/11/11 02:58:08;;;;;;;4.07;1.80;;;8.60;99.90;;;;;;4974918;28;20660;-88
2022/11/11 03:00:34;;;;;;;10.10;1.90;;;8.60;99.90;;;;;;4975079;28;20165;-88
2022/11/11 03:03:00;;;;;;;4.50;1.90;;;8.70;99.90;;;;;;4974987;28;20173;-89
2022/11/11 03:05:27;;;;;;;5.10;1.60;;;8.60;99.90;;;;;;4973785;28;20211;-89
2022/11/11 03:07:54;;;;;;;7.63;2.27;;;8.70;99.90;;;;;;4973660;28;20200;-88
2022/11/11 03:10:20;;;;;;;5.50;1.70;;;8.70;99.90;;;;;;4974675;28;20204;-88
2022/11/11 03:12:46;;;;;;;6.53;1.80;;;8.70;99.90;;;;;;4973569;28;20181;-88
2022/11/11 03:15:12;;;;;;;3.83;1.50;;;8.60;99.90;;;;;;4973924;28;20181;-88
2022/11/11 03:17:38;;;;;;;7.50;1.77;;;8.60;99.90;;;;;;4974572;28;20267;-88
2022/11/11 03:23:11;;;;;;;9.67;2.10;;;8.60;99.90;;;;;;4974798;28;20171;-89
2022/11/11 03:25:43;;;;;;;5.65;1.48;;;8.60;99.90;;;;;;4973656;28;20248;-88
2022/11/11 03:28:09;;;;;;;5.88;1.67;;;8.50;99.90;;;;;;4973353;28;20207;-88
2022/11/11 03:30:36;;;;;;;4.20;1.60;;;8.50;99.90;;;;;;4973002;28;20260;-89
2022/11/11 03:33:02;;;;;;;6.03;1.73;;;8.50;99.90;;;;;;4973592;28;20172;-88
2022/11/11 03:35:28;;;;;;;6.20;1.83;;;8.60;99.90;;;;;;4973678;28;20233;-88
2022/11/11 03:38:23;;;;;;;3.07;1.40;;;8.60;99.90;;;;;;4973018;28;20238;-88
2022/11/11 03:40:55;;;;;;;6.50;1.53;;;8.60;99.90;;;;;;4973879;28;20180;-88
2022/11/11 03:43:24;;;;;;;4.93;1.90;;;8.60;99.90;;;;;;4973153;28;20208;-88
2022/11/11 03:45:52;;;;;;;4.50;1.63;;;8.60;99.90;;;;;;4973011;28;20201;-88
2022/11/11 03:48:17;;;;;;;9.40;2.03;;;8.60;99.90;;;;;;4972870;28;20743;-88
2022/11/11 03:50:50;;;;;;;4.50;1.70;;;8.60;99.90;;;;;;4972764;28;20172;-88
2022/11/11 03:53:18;;;;;;;5.73;1.67;;;8.60;99.90;;;;;;4972989;28;20260;-88
2022/11/11 03:55:44;;;;;;;6.40;1.70;;;8.60;99.90;;;;;;4972816;28;20263;-88
2022/11/11 03:58:11;;;;;;;10.40;1.80;;;8.60;99.90;;;;;;4972897;28;20299;-88
2022/11/11 04:00:37;;;;;;;10.43;2.10;;;8.70;99.90;;;;;;4957075;28;20554;-89
2022/11/11 04:11:47;;;;;;;5.77;1.60;;;8.80;99.90;;;;;;4974304;28;20237;-88
2022/11/11 04:16:58;;;;;;;5.07;1.90;;;8.80;99.90;;;;;;4974012;28;20250;-88
2022/11/11 04:22:09;;;;;;;3.63;1.60;;;8.90;99.90;;;;;;4973417;28;20195;-88
2022/11/11 04:27:20;;;;;;;4.45;1.60;;;8.90;99.90;;;;;;4973639;28;20212;-88
2022/11/11 04:29:46;;;;;;;4.37;1.50;;;8.80;99.90;;;;;;4972577;28;20183;-88
2022/11/11 04:32:39;;;;;;;3.67;1.77;;;8.80;99.90;;;;;;4973941;28;20721;-88
2022/11/11 04:35:14;;;;;;;6.57;1.70;;;8.80;99.90;;;;;;4972436;28;20192;-89
2022/11/11 04:37:46;;;;;;;6.18;1.83;;;8.80;99.90;;;;;;4971764;28;20675;-89
2022/11/11 04:42:56;;;;;;;3.20;1.45;;;8.80;99.90;;;;;;4973648;28;20235;-88
2022/11/11 04:45:29;;;;;;;5.25;1.50;;;8.80;99.90;;;;;;4988645;28;20687;-89
2022/11/11 04:47:57;;;;;;;6.70;1.70;;;8.80;99.90;;;;;;4988706;28;20203;-88
2022/11/11 04:50:27;;;;;;;2.20;1.60;;;8.80;99.90;;;;;;4972328;28;20232;-88
2022/11/11 04:52:53;;;;;;;4.83;1.47;;;8.80;99.90;;;;;;4974582;28;20200;-88
2022/11/11 04:58:04;;;;;;;4.63;1.60;;;8.80;99.90;;;;;;4973642;28;20256;-88
2022/11/11 05:00:30;;;;;;;4.27;1.67;;;8.80;99.90;;;;;;4972360;28;20176;-88
2022/11/11 05:03:16;;;;;;;11.07;1.70;;;8.70;99.90;;;;;;4972456;28;20609;-89
2022/11/11 05:08:54;;;;;;;3.88;1.60;;;8.70;99.90;;;;;;4973200;28;20247;-89
2022/11/11 05:11:22;;;;;;;5.33;1.70;;;8.70;99.90;;;;;;4973284;28;20164;-89
2022/11/11 05:22:25;;;;;;;3.77;1.57;;;8.70;99.90;;;;;;4984722;28;20706;-88
2022/11/11 05:27:36;;;;;;;6.23;1.73;;;8.70;99.90;;;;;;4992986;28;20214;-88
2022/11/11 05:30:02;;;;;;;2.20;1.43;;;8.70;99.90;;;;;;4991211;28;20219;-89
2022/11/11 05:32:28;;;;;;;3.63;1.50;;;8.70;99.90;;;;;;4991452;28;20261;-88
2022/11/11 05:34:54;;;;;;;6.77;1.50;;;8.70;99.90;;;;;;4994439;28;20200;-89
2022/11/11 05:37:20;;;;;;;6.38;1.63;;;8.60;99.90;;;;;;4994370;28;20215;-89
2022/11/11 05:39:46;;;;;;;3.27;1.37;;;8.60;99.90;;;;;;4995244;28;20219;-89
2022/11/11 05:42:11;;;;;;;2.83;1.50;;;8.60;99.90;;;;;;4994872;28;20203;-89
2022/11/11 05:44:38;;;;;;;5.17;1.80;;;8.60;99.90;;;;;;4994438;28;20206;-88
2022/11/11 05:47:04;;;;;;;4.03;1.60;;;8.60;99.90;;;;;;4995555;28;20290;-88
2022/11/11 05:49:30;;;;;;;5.90;1.93;;;8.60;99.90;;;;;;5010977;28;20280;-89
2022/11/11 05:51:55;;;;;;;6.43;1.90;;;8.50;99.90;;;;;;4984844;28;20189;-88
2022/11/11 05:54:21;;;;;;;6.90;1.80;;;8.50;99.90;;;;;;4974874;28;20173;-89
2022/11/11 05:56:47;;;;;;;4.97;1.60;;;8.50;99.90;;;;;;4974766;28;20227;-89
2022/11/11 05:59:13;;;;;;;6.87;1.93;;;8.50;99.90;;;;;;4974874;28;20260;-88
2022/11/11 06:01:41;;;;;;;2.87;1.53;;;8.50;99.90;;;;;;4974825;28;20173;-88
2022/11/11 06:04:09;;;;;;;8.60;2.07;;;8.40;99.90;;;;;;4974885;28;20181;-88
2022/11/11 06:06:35;;;;;;;8.10;1.90;;;8.40;99.90;;;;;;4974407;28;20251;-88
2022/11/11 06:09:02;;;;;;;6.90;1.70;;;8.40;99.90;;;;;;4974975;28;20444;-88
2022/11/11 06:11:28;;;;;;;3.90;1.80;;;8.40;99.90;;;;;;4974928;28;20172;-88
2022/11/11 06:13:54;;;;;;;6.47;1.80;;;8.40;99.90;;;;;;4975654;28;20177;-88
2022/11/11 06:16:21;;;;;;;5.20;1.60;;;8.40;99.90;;;;;;4964332;28;20177;-88
2022/11/11 06:18:48;;;;;;;4.33;1.40;;;8.40;99.90;;;;;;4956284;28;20170;-89
2022/11/11 06:21:14;;;;;;;4.00;1.50;;;8.40;99.90;;;;;;4958138;28;20288;-88
2022/11/11 06:23:39;;;;;;;7.15;2.00;;;8.40;99.90;;;;;;4974191;28;20319;-88
2022/11/11 06:26:11;;;;;;;4.53;1.73;;;8.40;99.90;;;;;;4975702;28;20657;-89
2022/11/11 06:28:49;;;;;;;3.90;1.70;;;8.40;99.90;;;;;;4975410;28;20199;-87
2022/11/11 06:31:18;;;;;;;6.97;1.70;;;8.40;99.90;;;;;;4974082;28;20219;-88
2022/11/11 06:33:43;;;;;;;4.15;1.85;;;8.40;99.90;;;;;;4974290;28;20172;-88
2022/11/11 06:36:12;;;;;;;6.80;1.70;;;8.40;99.90;;;;;;4974489;28;20195;-89
2022/11/11 06:38:38;;;;;;;5.07;1.67;;;8.40;99.90;;;;;;4975322;28;20204;-89
2022/11/11 06:41:04;;;;;;;3.57;1.60;;;8.40;99.90;;;;;;4974735;28;20173;-89
2022/11/11 06:43:30;;;;;;;4.20;1.80;;;8.40;99.90;;;;;;4973572;28;20191;-90
2022/11/11 06:45:58;;;;;;;3.40;1.77;;;8.50;99.90;;;;;;4974227;28;20201;-88
2022/11/11 06:48:26;;;;;;;4.73;1.70;;;8.50;99.90;;;;;;4974256;28;20246;-88
2022/11/11 06:50:52;;;;;;;4.67;1.63;;;8.40;99.90;;;;;;4983564;28;20191;-89
2022/11/11 06:53:21;;;;;;;3.20;1.60;;;8.40;99.90;;;;;;4993193;28;20195;-89
2022/11/11 06:55:50;;;;;;;5.70;1.90;;;8.40;99.90;;;;;;5009854;28;20267;-88
2022/11/11 06:58:18;;;;;;;7.13;2.17;;;8.40;99.90;;;;;;4993650;28;20203;-89
2022/11/11 07:00:46;;;;;;;4.37;1.93;;;8.40;99.90;;;;;;4971348;28;20235;-88
2022/11/11 07:03:14;;;;;;;7.00;2.17;;;8.40;99.90;;;;;;4973333;28;20197;-89
2022/11/11 07:05:41;;;;;;;3.53;1.73;;;8.40;99.90;;;;;;4974173;28;20259;-89
2022/11/11 07:08:10;;;;;;;17.83;2.30;;;8.40;99.90;;;;;;4990021;28;20219;-89
2022/11/11 07:10:38;;;;;;;4.33;2.17;;;8.50;99.90;;;;;;4993352;28;20215;-89
2022/11/11 07:13:05;;;;;;;6.27;2.00;;;8.50;99.90;;;;;;4992240;28;20198;-89
2022/11/11 07:15:32;;;;;;;4.80;1.90;;;8.50;99.90;;;;;;4992467;28;20547;-88
2022/11/11 07:17:57;;;;;;;5.50;2.40;;;8.60;99.90;;;;;;4992190;28;20211;-88
2022/11/11 07:20:23;;;;;;;3.23;1.97;;;8.60;99.90;;;;;;4992361;28;20183;-88
2022/11/11 07:22:49;;;;;;;5.97;2.10;;;8.60;99.90;;;;;;4993332;28;20302;-88
2022/11/11 07:25:15;;;;;;;5.30;2.33;;;8.60;99.90;;;;;;5009336;28;20180;-88
2022/11/11 07:27:48;;;;;;;5.50;1.97;;;8.70;99.90;;;;;;4981159;28;20209;-88
2022/11/11 07:30:14;;;;;;;8.20;1.67;;;8.70;99.90;;;;;;4991284;28;20231;-89
2022/11/11 07:32:48;;;;;;;6.17;1.60;;;8.80;99.90;;;;;;4991990;28;20192;-89
2022/11/11 07:35:15;;;;;;;5.88;2.33;;;8.80;99.90;;;;;;4953897;28;20585;-89
2022/11/11 07:37:41;;;;;;;6.00;2.00;;;8.80;99.90;;;;;;4969348;28;20201;-88
2022/11/11 07:40:09;;;;;;;5.13;1.90;;;8.80;99.90;;;;;;4970060;28;20244;-89
2022/11/11 07:42:37;;;;;;;6.63;2.07;;;8.90;99.90;;;;;;4969028;28;20219;-88
2022/11/11 07:45:04;;;;;;;5.50;1.87;;;9.00;99.90;;;;;;4969243;28;20213;-89
2022/11/11 07:47:30;;;;;;;6.27;2.03;;;8.90;99.90;;;;;;4969509;28;20751;-88
2022/11/11 07:49:56;;;;;;;6.73;1.93;;;9.00;99.90;;;;;;4969199;28;20265;-88
2022/11/11 07:52:23;;;;;;;7.25;2.22;;;9.00;99.90;;;;;;4975724;28;20638;-88
2022/11/11 07:54:49;;;;;;;4.67;1.70;;;9.00;99.90;;;;;;4992373;28;20171;-88
2022/11/11 07:57:15;;;;;;;6.23;2.07;;;9.10;99.90;;;;;;4991038;28;20207;-89
2022/11/11 07:59:41;;;;;;;4.05;1.50;;;9.00;99.90;;;;;;4975069;28;20279;-89
2022/11/11 08:02:11;;;;;;;2.53;1.70;;;9.10;99.90;;;;;;4972989;28;20176;-88
2022/11/11 08:04:38;;;;;;;4.05;1.90;;;9.10;99.90;;;;;;4972430;28;20176;-86
2022/11/11 08:07:05;;;;;;;4.03;1.80;;;9.10;99.90;;;;;;4972229;28;20231;-87
2022/11/11 08:09:31;;;;;;;5.03;2.00;;;9.10;99.90;;;;;;4972417;28;20177;-89
2022/11/11 08:14:41;;;;;;;4.57;2.00;;;9.20;99.90;;;;;;4978291;28;20592;-88
2022/11/11 08:17:07;;;;;;;4.87;1.83;;;9.20;99.90;;;;;;4972491;28;20232;-87
2022/11/11 08:19:32;;;;;;;3.10;2.00;;;9.20;99.90;;;;;;4972044;28;20656;-87
2022/11/11 08:21:58;;;;;;;5.67;2.13;;;9.20;99.90;;;;;;4967969;28;20181;-87
2022/11/11 08:24:24;;;;;;;7.47;2.08;;;9.30;99.90;;;;;;4953438;28;20558;-87
2022/11/11 08:26:52;;;;;;;7.03;1.80;;;9.30;99.90;;;;;;4953220;28;20447;-87
2022/11/11 08:29:18;;;;;;;4.37;1.90;;;9.40;99.90;;;;;;4953198;28;20240;-88
2022/11/11 08:31:45;;;;;;;2.80;1.63;;;9.40;99.90;;;;;;4952199;28;20238;-87
2022/11/11 08:34:12;;;;;;;5.27;2.03;;;9.40;99.90;;;;;;4952568;28;20178;-89
2022/11/11 08:36:39;;;;;;;4.32;1.73;;;9.50;99.90;;;;;;4952306;28;20300;-87
2022/11/11 08:39:05;;;;;;;10.23;1.80;;;9.50;99.90;;;;;;4952546;28;20181;-87
2022/11/11 08:41:31;;;;;;;4.22;1.52;;;9.50;99.90;;;;;;4954045;28;20176;-88
2022/11/11 08:43:58;;;;;;;4.50;2.00;;;9.60;99.90;;;;;;4959167;28;20177;-90
2022/11/11 08:46:26;;;;;;;5.83;1.77;;;9.60;99.90;;;;;;4971688;28;20207;-87
2022/11/11 08:48:53;;;;;;;4.27;1.80;;;9.70;99.90;;;;;;4972927;28;20169;-88
2022/11/11 08:51:18;;;;;;;3.65;1.55;;;9.70;99.90;;;;;;4962689;28;20181;-88
2022/11/11 08:53:44;;;;;;;6.57;2.60;;;9.70;99.90;;;;;;4970607;28;20593;-88
2022/11/11 08:56:11;;;;;;;4.60;1.90;;;9.80;99.90;;;;;;4971478;28;20169;-87
2022/11/11 08:58:37;;;;;;;3.88;1.65;;;9.80;99.90;;;;;;4971519;28;20204;-90
2022/11/11 09:01:03;;;;;;;4.53;1.80;;;9.80;99.90;;;;;;4971765;28;20192;-88
2022/11/11 09:03:29;;;;;;;6.72;1.75;;;9.80;99.90;;;;;;4973395;28;20251;-90
2022/11/11 09:05:55;;;;;;;4.00;1.98;;;9.90;99.90;;;;;;4968353;28;20531;-90
2022/11/11 09:08:21;;;;;;;3.92;1.60;;;9.90;99.90;;;;;;4953765;28;20205;-89
2022/11/11 09:10:48;;;;;;;4.63;1.80;;;10.00;99.90;;;;;;4955950;28;20169;-88
2022/11/11 09:13:14;;;;;;;4.00;1.70;;;10.00;99.90;;;;;;4955964;28;20166;-90
2022/11/11 09:15:39;;;;;;;4.63;1.77;;;10.00;99.90;;;;;;4955929;28;20645;-89
2022/11/11 09:18:05;;;;;;;4.95;1.88;;;10.00;99.90;;;;;;4955984;28;20212;-87
2022/11/11 09:20:31;;;;;;;4.18;1.77;;;10.10;99.90;;;;;;4960619;28;20192;-89
2022/11/11 09:22:58;;;;;;;5.50;1.92;;;10.20;99.90;;;;;;4974602;28;20216;-86
2022/11/11 09:25:24;;;;;;;4.40;1.52;;;10.20;99.90;;;;;;4971622;28;20201;-88
2022/11/11 09:27:55;;;;;;;3.47;2.00;;;10.30;99.90;;;;;;4974534;28;20212;-87
2022/11/11 09:30:21;;;;;;;7.07;2.00;;;10.40;99.90;;;;;;4965690;28;20229;-88
2022/11/11 09:32:46;;;;;;;4.20;1.90;;;10.40;99.90;;;;;;4982221;28;20279;-87
2022/11/11 09:35:12;;;;;;;4.28;1.55;;;10.50;99.90;;;;;;5009531;28;20270;-88
2022/11/11 09:37:38;;;;;;;3.30;1.63;;;10.50;99.90;;;;;;4975617;28;20204;-87
2022/11/11 09:40:15;;;;;;;5.15;1.80;;;10.60;99.90;;;;;;4972138;28;20183;-87
2022/11/11 09:43:01;;;;;;;5.18;1.63;;;10.70;99.90;;;;;;4973945;28;20195;-87
2022/11/11 09:46:13;;;;;;;5.82;1.88;;;10.70;99.90;;;;;;4968096;28;20283;-87
2022/11/11 09:48:54;;;;;;;5.63;1.45;;;10.80;99.90;;;;;;4974030;28;20213;-87
2022/11/11 09:51:29;;;;;;;2.33;1.50;;;10.90;99.90;;;;;;4979119;28;20199;-87
2022/11/11 09:54:02;;;;;;;4.43;1.67;;;10.90;99.90;;;;;;4973493;28;20194;-88
2022/11/11 09:56:30;;;;;;;5.70;1.85;;;11.10;99.90;;;;;;4974922;28;20165;-88
2022/11/11 09:59:10;;;;;;;3.58;1.98;;;11.20;99.90;;;;;;4974462;28;20177;-89
2022/11/11 10:01:44;;;;;;;3.55;1.38;;;11.30;99.90;;;;;;4973204;28;20240;-89
2022/11/11 10:04:48;;;;;;;3.80;1.95;;;11.40;99.90;;;;;;4976372;28;20755;-89
2022/11/11 10:07:30;;;;;;;4.72;1.95;;;11.50;99.90;;;;;;5009071;28;20699;-87
2022/11/11 10:10:05;;;;;;;2.22;1.30;;;11.70;99.90;;;;;;4993232;28;20179;-89
2022/11/11 10:12:44;;;;;;;3.47;1.52;;;11.80;99.90;;;;;;4993103;28;20214;-89
2022/11/11 10:15:15;;;;;;;5.18;1.90;;;11.90;99.90;;;;;;4993662;28;20200;-89
2022/11/11 10:18:10;;;;;;;3.60;1.30;;;12.00;99.90;;;;;;4993458;28;20196;-90
2022/11/11 10:20:44;;;;;;;4.30;1.50;;;12.00;99.90;;;;;;4992899;28;20206;-89
2022/11/11 10:23:15;;;;;;;2.72;1.40;;;12.10;99.90;;;;;;4975336;28;20568;-89
2022/11/11 10:25:55;;;;;;;4.80;1.50;;;12.20;99.90;;;;;;4974804;28;20244;-89
2022/11/11 10:28:29;;;;;;;3.13;1.20;;;12.20;99.90;;;;;;4992976;28;20262;-89
2022/11/11 10:30:55;;;;;;;5.28;1.58;;;12.20;99.90;;;;;;4992716;28;20231;-89
2022/11/11 10:33:24;;;;;;;5.22;1.48;;;12.30;99.90;;;;;;4988679;28;20195;-88
2022/11/11 10:35:52;;;;;;;1.45;1.25;;;12.30;99.90;;;;;;4971814;28;20667;-90
2022/11/11 10:38:34;;;;;;;3.28;1.35;;;12.30;99.90;;;;;;4973197;28;20212;-89
2022/11/11 10:41:34;;;;;;;3.65;1.45;;;12.40;99.90;;;;;;4973115;28;20267;-90
2022/11/11 10:43:59;;;;;;;2.05;1.30;;;12.50;99.90;;;;;;4972583;28;20204;-89
2022/11/11 10:46:39;;;;;;;4.38;1.63;;;12.50;99.90;;;;;;4985434;28;20207;-89
2022/11/11 10:49:17;;;;;;;4.00;1.52;;;12.50;99.90;;;;;;4973432;28;20191;-89
2022/11/11 10:51:53;;;;;;;3.38;1.20;;;12.50;99.90;;;;;;4970913;28;20188;-88
2022/11/11 10:54:33;;;;;;;4.13;1.23;;;12.60;99.90;;;;;;4972985;28;20675;-90
2022/11/11 10:56:59;;;;;;;2.70;1.30;;;12.60;99.90;;;;;;4972963;28;20283;-90
2022/11/11 10:59:28;;;;;;;4.50;1.20;;;12.60;99.90;;;;;;4972901;28;20259;-89
2022/11/11 11:02:16;;;;;;;3.88;1.20;;;12.60;99.90;;;;;;4969868;28;20188;-89
2022/11/11 11:04:56;;;;;;;3.50;1.25;;;12.60;99.90;;;;;;4942503;28;20227;-89
2022/11/11 11:07:33;;;;;;;3.22;1.17;;;12.60;99.90;;;;;;4972556;28;20302;-90
2022/11/11 11:10:07;;;;;;;3.80;1.20;;;12.60;99.90;;;;;;4972453;28;20228;-88
2022/11/11 11:12:52;;;;;;;3.25;1.27;;;12.50;99.90;;;;;;4972661;28;20208;-88
2022/11/11 11:15:25;;;;;;;4.55;1.77;;;12.60;99.90;;;;;;4972272;28;20187;-89
2022/11/11 11:18:10;;;;;;;4.07;1.70;;;12.60;99.90;;;;;;4972572;28;20200;-90
2022/11/11 11:20:35;;;;;;;2.33;1.08;;;12.70;99.90;;;;;;4973641;28;20176;-88
2022/11/11 11:23:01;;;;;;;1.88;1.17;;;12.70;99.90;;;;;;4971346;28;20208;-89
2022/11/11 11:25:32;;;;;;;5.68;1.00;;;12.80;99.90;;;;;;4988571;28;20239;-89
2022/11/11 11:28:24;;;;;;;1.90;1.20;;;12.90;99.90;;;;;;4987476;28;20243;-89
2022/11/11 11:31:10;;;;;;;2.58;1.10;;;13.00;99.90;;;;;;4986816;28;20216;-89
2022/11/11 11:33:56;;;;;;;3.58;1.15;;;13.00;99.90;;;;;;4987952;28;20211;-89
2022/11/11 11:36:22;;;;;;;2.10;1.08;;;12.90;99.90;;;;;;4972967;28;20542;-89
2022/11/11 11:38:51;;;;;;;1.95;1.00;;;12.90;99.90;;;;;;4973126;28;20196;-89
2022/11/11 11:41:35;;;;;;;4.43;1.30;;;12.90;99.90;;;;;;4988586;28;20201;-89
2022/11/11 11:44:01;;;;;;;3.85;1.20;;;13.00;99.90;;;;;;4988114;28;20184;-88
2022/11/11 11:46:41;;;;;;;2.28;1.10;;;13.10;99.90;;;;;;4987348;28;20334;-89
2022/11/11 11:49:22;;;;;;;3.67;1.33;;;13.20;99.90;;;;;;4987981;28;20783;-88
2022/11/11 11:52:00;;;;;;;2.10;1.20;;;13.40;99.90;;;;;;4973291;28;20722;-89
2022/11/11 11:54:43;;;;;;;2.75;0.95;;;13.40;99.90;;;;;;4971231;28;20208;-89
2022/11/11 11:57:29;;;;;;;3.00;1.10;;;13.50;99.90;;;;;;4972815;28;20297;-89
2022/11/11 12:00:05;;;;;;;2.20;1.10;;;13.50;99.90;;;;;;4961697;28;20648;-88
2022/11/11 12:02:42;;;;;;;2.78;1.20;;;13.60;99.90;;;;;;4986840;28;20180;-89
2022/11/11 12:05:25;;;;;;;6.00;1.67;;;13.60;99.90;;;;;;4987515;28;20172;-88
2022/11/11 12:08:20;;;;;;;3.00;1.05;;;13.70;99.90;;;;;;4988147;28;20806;-89
2022/11/11 12:10:53;;;;;;;2.55;1.33;;;13.60;99.90;;;;;;4987937;28;20536;-88
2022/11/11 12:13:43;;;;;;;2.70;1.10;;;13.70;99.90;;;;;;4987846;28;20253;-89
2022/11/11 12:16:29;;;;;;;2.80;1.10;;;13.50;99.90;;;;;;4971541;28;20195;-88
2022/11/11 12:19:07;;;;;;;2.13;1.00;;;13.50;99.90;;;;;;4987572;28;20177;-90
2022/11/11 12:21:50;;;;;;;1.92;1.13;;;13.30;99.90;;;;;;4972163;28;20180;-88
2022/11/11 12:24:38;;;;;;;4.88;1.20;;;13.20;99.90;;;;;;4971636;28;20182;-88
2022/11/11 12:27:25;;;;;;;2.30;1.13;;;13.20;99.90;;;;;;4970992;28;20699;-89
2022/11/11 12:30:11;;;;;;;4.85;1.05;;;13.10;99.90;;;;;;4970532;28;20176;-88
2022/11/11 12:32:43;;;;;;;3.05;1.33;;;13.10;99.90;;;;;;4971236;28;20605;-89
2022/11/11 12:35:34;;;;;;;4.45;1.15;;;13.10;99.90;;;;;;4971539;28;20168;-89
2022/11/11 12:38:26;;;;;;;3.67;1.15;;;13.30;99.90;;;;;;4970888;28;20219;-89
2022/11/11 12:41:15;;;;;;;1.52;1.00;;;13.40;99.90;;;;;;4971089;28;20634;-88
2022/11/11 12:44:02;;;;;;;2.83;1.17;;;13.60;99.90;;;;;;4974257;28;20176;-89
2022/11/11 12:46:46;;;;;;;2.58;0.98;;;13.70;99.90;;;;;;4974799;28;20200;-89
2022/11/11 12:49:33;;;;;;;6.97;0.85;;;13.80;99.90;;;;;;4975179;28;20183;-89
2022/11/11 12:52:11;;;;;;;2.95;1.00;;;13.90;99.90;;;;;;4974590;28;20527;-89
2022/11/11 12:54:53;;;;;;;2.55;1.20;;;14.00;99.90;;;;;;4974722;28;20175;-89
2022/11/11 12:57:38;;;;;;;2.35;0.90;;;14.00;99.90;;;;;;4974664;28;20275;-90
2022/11/11 13:00:24;;;;;;;2.83;1.23;;;14.00;99.90;;;;;;4974801;28;20220;-88
2022/11/11 13:03:19;;;;;;;2.92;1.20;;;14.20;99.90;;;;;;4990668;28;20172;-89
2022/11/11 13:05:51;;;;;;;2.60;1.00;;;14.20;99.90;;;;;;4974168;28;20274;-89
2022/11/11 13:08:32;;;;;;;3.22;1.23;;;14.20;99.90;;;;;;4974946;28;20203;-89
2022/11/11 13:11:11;;;;;;;1.90;1.00;;;14.20;99.90;;;;;;4974542;28;20314;-88
2022/11/11 13:13:54;;;;;;;2.80;1.33;;;14.20;99.90;;;;;;4974149;28;20667;-89
2022/11/11 13:16:22;;;;;;;3.60;1.30;;;14.10;99.90;;;;;;4975241;28;20192;-90
2022/11/11 13:19:05;;;;;;;4.10;1.45;;;14.20;99.90;;;;;;4974504;28;20180;-89
2022/11/11 13:21:44;;;;;;;2.90;1.30;;;14.30;99.90;;;;;;4974560;28;20192;-89
2022/11/11 13:24:13;;;;;;;2.03;1.20;;;14.20;99.90;;;;;;4974654;28;20176;-88
2022/11/11 13:26:45;;;;;;;3.17;1.10;;;14.20;99.90;;;;;;4974497;28;20224;-89
2022/11/11 13:29:44;;;;;;;3.10;1.40;;;14.20;99.90;;;;;;4974255;28;20208;-88
2022/11/11 13:32:15;;;;;;;3.90;1.35;;;14.30;99.90;;;;;;4974207;28;20215;-89
2022/11/11 13:34:41;;;;;;;2.45;1.13;;;14.30;99.90;;;;;;4974252;28;20271;-88
2022/11/11 13:37:17;;;;;;;3.53;1.20;;;14.30;99.90;;;;;;4973558;28;20208;-89
2022/11/11 13:39:46;;;;;;;2.08;1.17;;;14.30;99.90;;;;;;4973865;28;20177;-89
2022/11/11 13:42:24;;;;;;;2.17;1.10;;;14.40;99.90;;;;;;4974079;28;20272;-89
2022/11/11 13:44:57;;;;;;;5.32;1.30;;;14.40;99.90;;;;;;4975172;28;20249;-89
2022/11/11 13:47:53;;;;;;;1.85;1.38;;;14.40;99.90;;;;;;4974958;28;20554;-87
2022/11/11 13:50:39;;;;;;;3.47;1.15;;;14.40;99.90;;;;;;4969150;28;20239;-88
2022/11/11 13:53:11;;;;;;;3.33;1.45;;;14.30;99.90;;;;;;4973314;28;20177;-89
2022/11/11 13:55:46;;;;;;;1.95;1.15;;;14.30;99.90;;;;;;4973070;28;20176;-89
2022/11/11 13:58:27;;;;;;;3.60;1.50;;;14.30;99.90;;;;;;4973785;28;20275;-88
2022/11/11 14:00:59;;;;;;;1.95;1.10;;;14.30;99.90;;;;;;4973751;28;20180;-88
2022/11/11 14:03:25;;;;;;;1.65;1.02;;;14.30;99.90;;;;;;4973711;28;20176;-89
2022/11/11 14:06:26;;;;;;;2.28;1.00;;;14.30;99.90;;;;;;4973740;28;20199;-89
2022/11/11 14:08:53;;;;;;;3.40;1.02;;;14.20;99.90;;;;;;4972670;28;20286;-88
2022/11/11 14:11:25;;;;;;;2.45;1.13;;;14.20;99.90;;;;;;4973192;28;20172;-89
2022/11/11 14:13:53;;;;;;;2.20;1.10;;;14.20;99.90;;;;;;4973685;28;20703;-88
2022/11/11 14:16:34;;;;;;;6.05;1.25;;;14.30;99.90;;;;;;4973388;28;20176;-88
2022/11/11 14:19:18;;;;;;;2.60;1.27;;;14.20;99.90;;;;;;4974482;28;20192;-88
2022/11/11 14:21:55;;;;;;;2.92;1.33;;;14.20;99.90;;;;;;4973756;28;20200;-89
2022/11/11 14:24:23;;;;;;;1.40;0.93;;;14.10;99.90;;;;;;4973405;28;20215;-89